Time;durP1;ratioP1;P1;durP2;ratioP2;P2;SDS_P1;SDS_P2;PMS_P1;PMS_P2;Temp;Humidity;BMP_temperature;BMP_pressure;BME280_temperature;BME280_humidity;BME280_pressure;Samples;Min_cycle;Max_cycle;Signal;HPM_P1;HPM_P2
2023/05/31 00:01:50;;;;;;;74.00;69.30;;;;;;;;;;1806059;79;35034;-57
2023/05/31 00:04:16;;;;;;;74.97;70.17;;;;;;;;;;1822098;78;25420;-59
2023/05/31 00:06:42;;;;;;;72.10;67.43;;;;;;;;;;1806065;79;25585;-59
2023/05/31 00:09:09;;;;;;;72.42;67.67;;;;;;;;;;1822102;78;27553;-59
2023/05/31 00:11:34;;;;;;;50.67;47.53;;;;;;;;;;1805958;79;29656;-59
2023/05/31 00:14:00;;;;;;;71.53;66.97;;;;;;;;;;1821984;78;34616;-67
2023/05/31 00:16:26;;;;;;;74.93;69.57;;;;;;;;;;1806030;79;32198;-66
2023/05/31 00:18:52;;;;;;;81.27;75.70;;;;;;;;;;1822130;78;25871;-67
2023/05/31 00:21:18;;;;;;;9.83;9.33;;;;;;;;;;1806046;79;32428;-66
2023/05/31 00:23:45;;;;;;;73.65;67.70;;;;;;;;;;1822012;78;25982;-66
2023/05/31 00:26:12;;;;;;;6.95;6.65;;;;;;;;;;1805643;79;25448;-66
2023/05/31 00:28:39;;;;;;;77.05;71.77;;;;;;;;;;1821466;78;25336;-66
2023/05/31 00:31:06;;;;;;;76.40;70.90;;;;;;;;;;1805603;79;25319;-66
2023/05/31 00:33:34;;;;;;;76.10;70.95;;;;;;;;;;1821586;78;27403;-66
2023/05/31 00:36:01;;;;;;;74.53;69.62;;;;;;;;;;1805373;79;25638;-66
2023/05/31 00:38:28;;;;;;;73.47;68.75;;;;;;;;;;1821486;78;25264;-66
2023/05/31 00:40:54;;;;;;;74.42;69.30;;;;;;;;;;1805437;79;25335;-66
2023/05/31 00:43:21;;;;;;;31.75;28.60;;;;;;;;;;1821524;78;25278;-67
2023/05/31 00:45:49;;;;;;;36.50;32.88;;;;;;;;;;1805457;79;27399;-66
2023/05/31 00:48:16;;;;;;;82.30;75.83;;;;;;;;;;1821419;78;25457;-66
2023/05/31 00:50:43;;;;;;;80.20;74.50;;;;;;;;;;1804368;79;25542;-66
2023/05/31 00:53:10;;;;;;;81.20;75.57;;;;;;;;;;1820235;78;27381;-66
2023/05/31 00:55:38;;;;;;;80.07;74.70;;;;;;;;;;1804487;79;25511;-66
2023/05/31 00:58:05;;;;;;;75.50;70.40;;;;;;;;;;1821457;78;27404;-66
2023/05/31 01:00:32;;;;;;;77.40;72.17;;;;;;;;;;1805420;79;25342;-66
2023/05/31 01:03:02;;;;;;;81.12;75.60;;;;;;;;;;1821486;78;25435;-66
2023/05/31 01:05:29;;;;;;;77.85;72.53;;;;;;;;;;1805327;79;26941;-66
2023/05/31 01:07:57;;;;;;;78.17;72.90;;;;;;;;;;1821482;78;25428;-66
2023/05/31 01:10:24;;;;;;;79.57;73.90;;;;;;;;;;1805740;79;27399;-66
2023/05/31 01:12:58;;;;;;;77.92;72.32;;;;;;;;;;1820802;78;25348;-66
2023/05/31 01:15:34;;;;;;;75.37;70.42;;;;;;;;;;1806848;79;25698;-66
2023/05/31 01:18:09;;;;;;;76.12;71.00;;;;;;;;;;1827565;78;25477;-67
2023/05/31 01:20:39;;;;;;;78.75;73.45;;;;;;;;;;1808596;79;25280;-66
2023/05/31 01:23:28;;;;;;;77.50;72.30;;;;;;;;;;1827531;78;27397;-66
2023/05/31 01:26:07;;;;;;;75.20;70.30;;;;;;;;;;1808636;79;25424;-66
2023/05/31 01:28:38;;;;;;;79.60;73.97;;;;;;;;;;1806973;79;25397;-66
2023/05/31 01:31:07;;;;;;;78.17;72.75;;;;;;;;;;1827293;78;25941;-66
2023/05/31 01:33:36;;;;;;;72.45;67.85;;;;;;;;;;1808537;79;25444;-66
2023/05/31 01:36:04;;;;;;;77.30;72.12;;;;;;;;;;1827514;78;27319;-66
2023/05/31 01:38:31;;;;;;;77.32;71.97;;;;;;;;;;1808421;79;25589;-66
2023/05/31 01:40:58;;;;;;;77.53;71.62;;;;;;;;;;1827527;78;25438;-66
2023/05/31 01:43:26;;;;;;;79.40;73.72;;;;;;;;;;1808530;79;25337;-66
2023/05/31 01:45:55;;;;;;;75.22;70.12;;;;;;;;;;1827517;78;25503;-66
2023/05/31 01:48:23;;;;;;;78.47;73.30;;;;;;;;;;1808514;79;27438;-66
2023/05/31 01:50:51;;;;;;;75.75;70.57;;;;;;;;;;1827421;78;27203;-66
2023/05/31 01:53:18;;;;;;;76.80;71.80;;;;;;;;;;1808507;79;25437;-65
2023/05/31 01:55:46;;;;;;;74.25;69.05;;;;;;;;;;1827440;78;25441;-65
2023/05/31 01:58:14;;;;;;;52.50;48.83;;;;;;;;;;1808822;79;25484;-65
2023/05/31 02:00:42;;;;;;;75.28;70.28;;;;;;;;;;1827486;78;27343;-65
2023/05/31 02:03:10;;;;;;;75.95;70.67;;;;;;;;;;1808393;79;25353;-65
2023/05/31 02:05:37;;;;;;;78.47;73.28;;;;;;;;;;1827510;78;25364;-65
2023/05/31 02:08:05;;;;;;;75.72;70.80;;;;;;;;;;1808462;79;25354;-65
2023/05/31 02:10:32;;;;;;;78.30;73.10;;;;;;;;;;1827701;78;25458;-65
2023/05/31 02:12:59;;;;;;;74.03;69.13;;;;;;;;;;1808471;79;27410;-65
2023/05/31 02:15:27;;;;;;;19.17;18.10;;;;;;;;;;1823807;78;27227;-65
2023/05/31 02:17:54;;;;;;;75.50;70.30;;;;;;;;;;1805424;79;25336;-65
2023/05/31 02:20:21;;;;;;;71.60;66.67;;;;;;;;;;1821417;78;25500;-65
2023/05/31 02:22:49;;;;;;;70.80;66.30;;;;;;;;;;1805383;79;25231;-65
2023/05/31 02:25:16;;;;;;;77.90;72.95;;;;;;;;;;1820894;78;27362;-65
2023/05/31 02:27:43;;;;;;;76.42;71.35;;;;;;;;;;1805275;79;25578;-65
2023/05/31 02:30:11;;;;;;;81.97;75.90;;;;;;;;;;1821402;78;25369;-65
2023/05/31 02:32:39;;;;;;;74.83;69.90;;;;;;;;;;1805621;79;25341;-65
2023/05/31 02:35:09;;;;;;;76.97;71.67;;;;;;;;;;1821688;78;25468;-65
2023/05/31 02:37:38;;;;;;;77.10;71.82;;;;;;;;;;1805376;79;28018;-66
2023/05/31 02:40:08;;;;;;;75.05;69.87;;;;;;;;;;1821437;78;25722;-65
2023/05/31 02:42:37;;;;;;;80.17;74.75;;;;;;;;;;1805518;79;25501;-65
2023/05/31 02:47:53;;;;;;;82.15;76.75;;;;;;;;;;1744508;82;25348;-65
2023/05/31 02:50:20;;;;;;;77.30;72.10;;;;;;;;;;1774259;80;27390;-65
2023/05/31 02:52:47;;;;;;;75.57;70.65;;;;;;;;;;1774147;80;25774;-66
2023/05/31 02:55:14;;;;;;;75.70;70.70;;;;;;;;;;1774148;80;25574;-65
2023/05/31 02:57:41;;;;;;;80.05;74.37;;;;;;;;;;1774188;80;25464;-65
2023/05/31 03:00:15;;;;;;;75.75;70.70;;;;;;;;;;1774222;80;25704;-65
2023/05/31 03:02:42;;;;;;;9.35;3.52;;;;;;;;;;1774204;80;27531;-66
2023/05/31 03:05:10;;;;;;;40.90;38.15;;;;;;;;;;1774148;80;25400;-66
2023/05/31 03:07:37;;;;;;;80.75;75.28;;;;;;;;;;1774210;80;25497;-67
2023/05/31 03:10:07;;;;;;;80.32;74.95;;;;;;;;;;1774165;80;25307;-67
2023/05/31 03:12:35;;;;;;;;;;;;;;;;;;1776881;80;25546;-67
2023/05/31 03:15:03;;;;;;;75.42;70.22;;;;;;;;;;1774211;80;27416;-67
2023/05/31 03:17:30;;;;;;;79.45;74.17;;;;;;;;;;1774247;80;25506;-67
2023/05/31 03:19:57;;;;;;;79.45;74.15;;;;;;;;;;1774216;80;25532;-67
2023/05/31 03:22:25;;;;;;;81.10;75.40;;;;;;;;;;1774152;80;25542;-67
2023/05/31 03:24:52;;;;;;;78.25;73.00;;;;;;;;;;1776803;80;25531;-67
2023/05/31 03:27:19;;;;;;;73.55;68.55;;;;;;;;;;1780389;80;29641;-66
2023/05/31 03:29:46;;;;;;;76.20;71.02;;;;;;;;;;1780346;80;25562;-66
2023/05/31 03:32:13;;;;;;;77.08;71.95;;;;;;;;;;1780427;80;25392;-67
2023/05/31 03:34:40;;;;;;;75.70;70.35;;;;;;;;;;1780467;80;25433;-67
2023/05/31 03:37:07;;;;;;;78.33;72.78;;;;;;;;;;1780430;80;25632;-67
2023/05/31 03:39:34;;;;;;;76.00;70.35;;;;;;;;;;1780406;80;27469;-68
2023/05/31 03:42:02;;;;;;;75.92;70.80;;;;;;;;;;1780298;80;25758;-68
2023/05/31 03:44:29;;;;;;;75.60;70.65;;;;;;;;;;1780429;80;25439;-68
2023/05/31 03:46:56;;;;;;;75.40;70.20;;;;;;;;;;1777148;80;25315;-66
2023/05/31 03:49:22;;;;;;;75.35;70.30;;;;;;;;;;1774662;80;25524;-66
2023/05/31 03:51:49;;;;;;;78.65;73.20;;;;;;;;;;1774625;80;27375;-66
2023/05/31 03:54:17;;;;;;;79.47;74.03;;;;;;;;;;1741968;80;27222;-66
2023/05/31 03:56:43;;;;;;;76.07;70.95;;;;;;;;;;1774609;80;25463;-65
2023/05/31 03:59:10;;;;;;;74.40;69.50;;;;;;;;;;1774609;80;25687;-65
2023/05/31 04:01:37;;;;;;;72.78;68.15;;;;;;;;;;1774753;80;25444;-66
2023/05/31 04:04:04;;;;;;;77.40;71.87;;;;;;;;;;1774767;80;27365;-66
2023/05/31 04:06:31;;;;;;;72.40;67.80;;;;;;;;;;1774675;80;25527;-67
2023/05/31 04:08:58;;;;;;;74.00;69.32;;;;;;;;;;1774742;80;25325;-67
2023/05/31 04:11:25;;;;;;;70.77;66.07;;;;;;;;;;1774724;80;25574;-67
2023/05/31 04:13:53;;;;;;;82.42;77.03;;;;;;;;;;1774769;80;25280;-67
2023/05/31 04:16:20;;;;;;;75.10;70.20;;;;;;;;;;1774737;80;27434;-67
2023/05/31 04:18:47;;;;;;;53.10;49.45;;;;;;;;;;1774687;80;25323;-67
2023/05/31 04:21:14;;;;;;;72.47;67.58;;;;;;;;;;1774752;80;25339;-68
2023/05/31 04:23:43;;;;;;;71.60;67.05;;;;;;;;;;1774725;80;27637;-67
2023/05/31 04:26:16;;;;;;;73.90;69.07;;;;;;;;;;1774881;80;25304;-66
2023/05/31 04:28:39;;;;;;;83.92;78.65;;;;;;;;;;1773384;80;29492;-66
2023/05/31 04:31:07;;;;;;;71.65;66.85;;;;;;;;;;1774645;80;27189;-66
2023/05/31 04:33:35;;;;;;;73.17;68.30;;;;;;;;;;1774715;80;25445;-66
2023/05/31 04:36:04;;;;;;;70.03;65.65;;;;;;;;;;1774705;80;25530;-66
2023/05/31 04:38:32;;;;;;;69.77;65.07;;;;;;;;;;1774781;80;25292;-66
2023/05/31 04:41:00;;;;;;;58.77;55.20;;;;;;;;;;1774718;80;29548;-66
2023/05/31 04:43:27;;;;;;;7.33;7.03;;;;;;;;;;1774671;80;25654;-66
2023/05/31 04:46:00;;;;;;;7.60;7.23;;;;;;;;;;1774233;80;25515;-66
2023/05/31 04:48:26;;;;;;;7.80;7.40;;;;;;;;;;1787687;80;25505;-66
2023/05/31 04:50:54;;;;;;;7.62;7.25;;;;;;;;;;1789130;80;25502;-67
2023/05/31 04:53:23;;;;;;;13.38;12.60;;;;;;;;;;1789347;80;27481;-67
2023/05/31 04:55:51;;;;;;;46.53;43.80;;;;;;;;;;1788957;80;27149;-67
2023/05/31 04:58:19;;;;;;;71.45;67.15;;;;;;;;;;1789244;80;30340;-66
2023/05/31 05:00:46;;;;;;;7.33;7.00;;;;;;;;;;1789047;80;25549;-66
2023/05/31 05:03:14;;;;;;;12.37;11.65;;;;;;;;;;1789172;80;25294;-67
2023/05/31 05:05:42;;;;;;;74.20;69.45;;;;;;;;;;1789116;80;27392;-65
2023/05/31 05:08:09;;;;;;;74.65;69.92;;;;;;;;;;1788941;80;25349;-65
2023/05/31 05:10:36;;;;;;;68.30;64.07;;;;;;;;;;1789071;80;25445;-71
2023/05/31 05:13:03;;;;;;;8.00;7.60;;;;;;;;;;1789034;80;25526;-71
2023/05/31 05:15:30;;;;;;;48.55;44.75;;;;;;;;;;1789104;80;25331;-71
2023/05/31 05:17:57;;;;;;;51.40;48.28;;;;;;;;;;1789223;80;27511;-71
2023/05/31 05:20:24;;;;;;;71.82;67.47;;;;;;;;;;1789096;80;25635;-66
2023/05/31 05:22:52;;;;;;;71.95;67.40;;;;;;;;;;1789210;80;25349;-67
2023/05/31 05:25:21;;;;;;;71.67;67.17;;;;;;;;;;1789016;80;25506;-67
2023/05/31 05:27:48;;;;;;;71.47;66.95;;;;;;;;;;1789065;80;25270;-67
2023/05/31 05:30:17;;;;;;;53.52;50.05;;;;;;;;;;1789058;80;29580;-66
2023/05/31 05:32:44;;;;;;;74.35;69.32;;;;;;;;;;1788975;80;25319;-64
2023/05/31 05:35:12;;;;;;;72.62;67.92;;;;;;;;;;1789044;80;25364;-67
2023/05/31 05:37:38;;;;;;;75.67;70.87;;;;;;;;;;1788990;80;25549;-64
2023/05/31 05:40:07;;;;;;;49.80;46.45;;;;;;;;;;1789132;80;25460;-64
2023/05/31 05:42:38;;;;;;;;;;;;;;;;;;1791719;80;27893;-64
2023/05/31 05:45:07;;;;;;;74.22;69.42;;;;;;;;;;1788378;80;25602;-64
2023/05/31 05:47:35;;;;;;;69.85;65.50;;;;;;;;;;1781812;80;25351;-64
2023/05/31 05:50:05;;;;;;;75.15;70.22;;;;;;;;;;1774668;80;26507;-63
2023/05/31 05:52:32;;;;;;;73.95;69.03;;;;;;;;;;1774711;80;25325;-64
2023/05/31 05:54:59;;;;;;;71.47;66.67;;;;;;;;;;1774672;80;27390;-64
2023/05/31 05:57:26;;;;;;;69.58;65.12;;;;;;;;;;1774049;80;25556;-64
2023/05/31 05:59:53;;;;;;;72.27;67.60;;;;;;;;;;1774230;80;25523;-64
2023/05/31 06:02:20;;;;;;;71.42;66.95;;;;;;;;;;1773702;80;25613;-64
2023/05/31 06:04:48;;;;;;;70.65;66.47;;;;;;;;;;1773475;80;25550;-64
2023/05/31 06:07:18;;;;;;;71.22;66.12;;;;;;;;;;1773589;80;27366;-64
2023/05/31 06:09:45;;;;;;;70.87;66.60;;;;;;;;;;1773299;80;25952;-64
2023/05/31 06:12:12;;;;;;;70.80;66.17;;;;;;;;;;1772997;80;25561;-65
2023/05/31 06:14:39;;;;;;;68.95;64.90;;;;;;;;;;1773633;80;25586;-64
2023/05/31 06:17:07;;;;;;;14.13;13.40;;;;;;;;;;1774166;80;25890;-65
2023/05/31 06:19:34;;;;;;;99.03;91.37;;;;;;;;;;1774697;80;27242;-65
2023/05/31 06:22:02;;;;;;;55.00;51.53;;;;;;;;;;1774839;80;25345;-65
2023/05/31 06:24:29;;;;;;;7.15;6.85;;;;;;;;;;1774770;80;25339;-65
2023/05/31 06:26:56;;;;;;;3.67;3.58;;;;;;;;;;1774633;80;25587;-64
2023/05/31 06:29:23;;;;;;;70.30;66.05;;;;;;;;;;1774702;80;25500;-64
2023/05/31 06:31:50;;;;;;;73.37;68.52;;;;;;;;;;1774738;80;27343;-64
2023/05/31 06:34:17;;;;;;;58.73;54.77;;;;;;;;;;1774640;80;25507;-64
2023/05/31 06:36:44;;;;;;;72.85;68.52;;;;;;;;;;1774776;80;34595;-64
2023/05/31 06:39:11;;;;;;;72.32;67.80;;;;;;;;;;1774614;80;25574;-65
2023/05/31 06:41:38;;;;;;;72.78;68.15;;;;;;;;;;1774718;80;25504;-63
2023/05/31 06:44:05;;;;;;;71.62;67.32;;;;;;;;;;1742187;80;27418;-64
2023/05/31 06:46:32;;;;;;;71.42;67.32;;;;;;;;;;1774577;80;27129;-64
2023/05/31 06:49:01;;;;;;;70.20;65.75;;;;;;;;;;1774626;80;25308;-64
2023/05/31 06:51:28;;;;;;;3.55;1.05;;;;;;;;;;1774834;80;32768;-64
2023/05/31 06:53:55;;;;;;;3.70;1.70;;;;;;;;;;1774659;80;25470;-64
2023/05/31 06:56:22;;;;;;;2.58;1.00;;;;;;;;;;1774632;80;27357;-64
2023/05/31 06:58:49;;;;;;;4.85;1.32;;;;;;;;;;1774586;80;25364;-64
2023/05/31 07:01:16;;;;;;;3.75;1.70;;;;;;;;;;1774682;80;25368;-65
2023/05/31 07:03:43;;;;;;;5.97;1.95;;;;;;;;;;1773474;80;26050;-64
2023/05/31 07:06:10;;;;;;;3.83;1.50;;;;;;;;;;1773154;80;25540;-65
2023/05/31 07:08:37;;;;;;;2.55;1.82;;;;;;;;;;1774581;80;27455;-65
2023/05/31 07:11:04;;;;;;;5.58;1.30;;;;;;;;;;1774691;80;25524;-65
2023/05/31 07:13:31;;;;;;;3.00;1.05;;;;;;;;;;1774683;80;25317;-65
2023/05/31 07:15:58;;;;;;;5.15;1.35;;;;;;;;;;1774646;80;25475;-65
2023/05/31 07:18:26;;;;;;;69.17;65.17;;;;;;;;;;1774668;80;25345;-65
2023/05/31 07:20:56;;;;;;;24.82;22.65;;;;;;;;;;1774640;80;27392;-64
2023/05/31 07:23:21;;;;;;;63.08;59.38;;;;;;;;;;1774374;80;25323;-64
2023/05/31 07:25:48;;;;;;;71.15;65.95;;;;;;;;;;1774594;80;25418;-64
2023/05/31 07:28:15;;;;;;;70.60;66.60;;;;;;;;;;1774582;80;25679;-64
2023/05/31 07:30:42;;;;;;;5.62;1.37;;;;;;;;;;1774694;80;25352;-64
2023/05/31 07:33:09;;;;;;;4.97;1.25;;;;;;;;;;1774647;80;27454;-64
2023/05/31 07:35:36;;;;;;;46.00;42.88;;;;;;;;;;1774603;80;25511;-65
2023/05/31 07:38:04;;;;;;;10.58;2.47;;;;;;;;;;1774892;80;25461;-64
2023/05/31 07:40:31;;;;;;;65.97;62.25;;;;;;;;;;1774805;80;25672;-65
2023/05/31 07:42:58;;;;;;;62.60;59.10;;;;;;;;;;1774837;80;25360;-64
2023/05/31 07:45:25;;;;;;;2.50;1.10;;;;;;;;;;1774847;80;27971;-64
2023/05/31 07:47:52;;;;;;;1.87;1.05;;;;;;;;;;1774646;80;25694;-65
2023/05/31 07:50:19;;;;;;;4.47;1.10;;;;;;;;;;1774811;80;25269;-65
2023/05/31 07:52:49;;;;;;;64.92;61.42;;;;;;;;;;1774751;80;25588;-65
2023/05/31 07:55:17;;;;;;;65.95;62.45;;;;;;;;;;1774763;80;25467;-64
2023/05/31 07:57:44;;;;;;;;;;;;;;;;;;1777454;80;27926;-64
2023/05/31 08:00:15;;;;;;;3.92;1.20;;;;;;;;;;1774717;80;25318;-64
2023/05/31 08:02:42;;;;;;;5.20;1.10;;;;;;;;;;1774804;80;25288;-64
2023/05/31 08:05:10;;;;;;;2.35;1.12;;;;;;;;;;1774777;80;25523;-64
2023/05/31 08:07:37;;;;;;;2.30;1.00;;;;;;;;;;1774809;80;25467;-65
2023/05/31 08:10:05;;;;;;;2.37;1.00;;;;;;;;;;1774775;80;27317;-65
2023/05/31 08:12:33;;;;;;;1.05;0.80;;;;;;;;;;1774885;80;25591;-62
2023/05/31 08:14:59;;;;;;;0.82;0.80;;;;;;;;;;1774896;80;25364;-62
2023/05/31 08:17:26;;;;;;;1.77;1.00;;;;;;;;;;1774715;80;25564;-62
2023/05/31 08:19:54;;;;;;;4.22;1.10;;;;;;;;;;1774853;80;25531;-62
2023/05/31 08:22:21;;;;;;;2.52;1.10;;;;;;;;;;1774775;80;27337;-62
2023/05/31 08:24:48;;;;;;;2.75;1.20;;;;;;;;;;1774746;80;25347;-62
2023/05/31 08:27:17;;;;;;;2.27;0.93;;;;;;;;;;1775005;80;25481;-63
2023/05/31 08:29:44;;;;;;;4.42;0.88;;;;;;;;;;1774909;80;25498;-63
2023/05/31 08:32:11;;;;;;;4.20;1.20;;;;;;;;;;1774795;80;25467;-63
2023/05/31 08:34:38;;;;;;;1.45;1.00;;;;;;;;;;1774751;80;27429;-63
2023/05/31 08:37:05;;;;;;;7.97;0.98;;;;;;;;;;1774688;80;25282;-63
2023/05/31 08:39:32;;;;;;;7.12;4.45;;;;;;;;;;1774736;80;25286;-63
2023/05/31 08:42:05;;;;;;;3.62;2.00;;;;;;;;;;1774750;80;25888;-64
2023/05/31 08:44:33;;;;;;;5.60;1.00;;;;;;;;;;1774791;80;25512;-64
2023/05/31 08:47:16;;;;;;;4.03;1.00;;;;;;;;;;1774728;80;27361;-64
2023/05/31 08:49:45;;;;;;;2.52;2.33;;;;;;;;;;1782112;80;25738;-65
2023/05/31 08:52:13;;;;;;;5.33;1.02;;;;;;;;;;1783522;80;25459;-65
2023/05/31 08:54:42;;;;;;;4.00;2.93;;;;;;;;;;1783491;80;27680;-64
2023/05/31 08:57:11;;;;;;;1.32;0.80;;;;;;;;;;1783492;80;25443;-61
2023/05/31 08:59:40;;;;;;;20.77;19.45;;;;;;;;;;1783552;80;27487;-62
2023/05/31 09:02:08;;;;;;;46.53;42.80;;;;;;;;;;1783293;80;25318;-62
2023/05/31 09:04:35;;;;;;;4.47;1.52;;;;;;;;;;1783471;80;25495;-62
2023/05/31 09:07:03;;;;;;;3.27;1.00;;;;;;;;;;1783264;80;25558;-62
2023/05/31 09:09:30;;;;;;;14.60;13.85;;;;;;;;;;1783327;80;25499;-61
2023/05/31 09:11:57;;;;;;;3.55;1.05;;;;;;;;;;1783271;80;27368;-63
2023/05/31 09:14:24;;;;;;;2.37;0.90;;;;;;;;;;1783169;80;25668;-63
2023/05/31 09:16:52;;;;;;;1.52;1.02;;;;;;;;;;1783245;80;25461;-63
2023/05/31 09:19:19;;;;;;;3.17;1.10;;;;;;;;;;1783234;80;27650;-63
2023/05/31 09:21:46;;;;;;;1.30;0.82;;;;;;;;;;1783314;80;25310;-62
2023/05/31 09:24:15;;;;;;;5.22;1.12;;;;;;;;;;1783242;80;29546;-62
2023/05/31 09:26:47;;;;;;;;;;;;;;;;;;1785854;80;25315;-63
2023/05/31 09:29:16;;;;;;;2.37;1.22;;;;;;;;;;1782607;80;25345;-63
2023/05/31 09:31:44;;;;;;;3.33;1.42;;;;;;;;;;1783260;80;25530;-64
2023/05/31 09:34:27;;;;;;;5.72;1.00;;;;;;;;;;1783443;80;25445;-63
2023/05/31 09:36:59;;;;;;;3.77;0.90;;;;;;;;;;1782756;80;27441;-62
2023/05/31 09:39:26;;;;;;;0.80;0.78;;;;;;;;;;1783331;80;25435;-62
2023/05/31 09:41:53;;;;;;;5.58;4.40;;;;;;;;;;1783233;80;25511;-63
2023/05/31 09:44:23;;;;;;;2.92;1.20;;;;;;;;;;1783255;80;25556;-64
2023/05/31 09:46:50;;;;;;;14.18;13.08;;;;;;;;;;1782918;80;25514;-64
2023/05/31 09:49:19;;;;;;;3.37;1.00;;;;;;;;;;1777917;80;27371;-61
2023/05/31 09:51:54;;;;;;;4.50;1.90;;;;;;;;;;1773783;80;25551;-65
2023/05/31 09:54:25;;;;;;;8.65;7.87;;;;;;;;;;1774654;80;25469;-64
2023/05/31 09:56:52;;;;;;;32.00;29.55;;;;;;;;;;1774599;80;25475;-64
2023/05/31 09:59:21;;;;;;;34.60;32.75;;;;;;;;;;1774722;80;25460;-66
2023/05/31 10:01:50;;;;;;;;;;;;;;;;;;1777369;80;27382;-65
2023/05/31 10:04:19;;;;;;;3.72;1.00;;;;;;;;;;1774723;80;27235;-65
2023/05/31 10:06:48;;;;;;;4.70;1.40;;;;;;;;;;1742199;80;25524;-64
2023/05/31 10:09:15;;;;;;;;;;;;;;;;;;1777385;80;25701;-64
2023/05/31 10:11:45;;;;;;;;;;;;;;;;;;1777313;80;25415;-65
2023/05/31 10:14:20;;;;;;;4.60;1.30;;;;;;;;;;1774770;80;27512;-64
2023/05/31 10:16:54;;;;;;;1.70;1.07;;;;;;;;;;1774563;80;25468;-64
2023/05/31 10:19:26;;;;;;;3.17;1.30;;;;;;;;;;1774819;80;25305;-65
2023/05/31 10:21:55;;;;;;;5.30;1.10;;;;;;;;;;1774100;80;28931;-63
2023/05/31 10:24:31;;;;;;;1.07;0.90;;;;;;;;;;1774707;80;25279;-65
2023/05/31 10:27:08;;;;;;;4.15;0.78;;;;;;;;;;1774657;80;27355;-64
2023/05/31 10:29:48;;;;;;;2.58;1.20;;;;;;;;;;1773238;80;25842;-66
2023/05/31 10:32:18;;;;;;;3.45;1.22;;;;;;;;;;1774104;80;25357;-66
2023/05/31 10:34:47;;;;;;;1.77;0.80;;;;;;;;;;1741676;80;25553;-64
2023/05/31 10:37:16;;;;;;;3.33;1.42;;;;;;;;;;1742537;80;25468;-67
2023/05/31 10:39:50;;;;;;;3.75;2.00;;;;;;;;;;1774652;80;27498;-68
2023/05/31 10:42:42;;;;;;;3.90;1.60;;;;;;;;;;1774631;80;25447;-67
2023/05/31 10:45:30;;;;;;;4.20;0.93;;;;;;;;;;1774772;80;25365;-69
2023/05/31 10:48:16;;;;;;;2.45;0.93;;;;;;;;;;1773629;80;25515;-69
2023/05/31 10:51:00;;;;;;;6.70;1.60;;;;;;;;;;1774735;80;25451;-70
2023/05/31 10:53:36;;;;;;;5.10;2.02;;;;;;;;;;1774689;80;27368;-70
2023/05/31 10:56:05;;;;;;;4.90;1.00;;;;;;;;;;1774575;80;25614;-70
2023/05/31 10:58:51;;;;;;;2.37;0.90;;;;;;;;;;1774635;80;25465;-70
2023/05/31 11:01:20;;;;;;;1.52;1.07;;;;;;;;;;1774660;80;25492;-72
2023/05/31 11:03:51;;;;;;;1.52;1.32;;;;;;;;;;1774692;80;25373;-66
2023/05/31 11:06:33;;;;;;;5.58;1.55;;;;;;;;;;1774758;80;27407;-67
2023/05/31 11:09:07;;;;;;;5.33;1.60;;;;;;;;;;1774568;80;25365;-67
2023/05/31 11:11:39;;;;;;;5.30;1.05;;;;;;;;;;1774529;80;25305;-66
2023/05/31 11:14:10;;;;;;;2.55;1.20;;;;;;;;;;1774625;80;25598;-67
2023/05/31 11:16:46;;;;;;;2.58;1.25;;;;;;;;;;1774649;80;25437;-66
2023/05/31 11:19:17;;;;;;;1.92;0.95;;;;;;;;;;1755216;80;27416;-66
2023/05/31 11:21:52;;;;;;;4.47;1.20;;;;;;;;;;1774421;80;25291;-66
2023/05/31 11:24:35;;;;;;;2.15;0.90;;;;;;;;;;1774637;80;25345;-67
2023/05/31 11:27:05;;;;;;;2.65;1.20;;;;;;;;;;1764249;80;25558;-65
2023/05/31 11:29:54;;;;;;;6.70;1.20;;;;;;;;;;1774701;80;25440;-66
2023/05/31 11:32:39;;;;;;;3.08;1.20;;;;;;;;;;1774698;80;29625;-65
2023/05/31 11:35:16;;;;;;;2.12;1.17;;;;;;;;;;1774566;80;25608;-65
2023/05/31 11:37:45;;;;;;;4.75;1.77;;;;;;;;;;1774639;80;25460;-66
2023/05/31 11:40:15;;;;;;;2.12;1.40;;;;;;;;;;1774597;80;25634;-65
2023/05/31 11:42:44;;;;;;;6.85;2.17;;;;;;;;;;1774738;80;25528;-65
2023/05/31 11:45:22;;;;;;;4.65;1.22;;;;;;;;;;1774724;80;27373;-65
2023/05/31 11:48:08;;;;;;;4.27;1.47;;;;;;;;;;1774908;80;25541;-66
2023/05/31 11:50:35;;;;;;;3.33;1.15;;;;;;;;;;1774172;80;25318;-67
2023/05/31 11:53:04;;;;;;;3.65;1.12;;;;;;;;;;1774794;80;25575;-67
2023/05/31 11:55:33;;;;;;;6.30;1.42;;;;;;;;;;1774755;80;25424;-67
2023/05/31 11:58:01;;;;;;;5.62;1.55;;;;;;;;;;1774594;80;27483;-69
2023/05/31 12:00:30;;;;;;;3.33;1.15;;;;;;;;;;1774729;80;25345;-72
2023/05/31 12:03:04;;;;;;;4.05;1.10;;;;;;;;;;1774735;80;25526;-73
2023/05/31 12:05:28;;;;;;;5.28;1.20;;;;;;;;;;1773536;80;25449;-73
2023/05/31 12:07:57;;;;;;;4.47;1.20;;;;;;;;;;1774799;80;25076;-64
2023/05/31 12:10:30;;;;;;;5.72;1.30;;;;;;;;;;1774611;80;27463;-68
2023/05/31 12:12:59;;;;;;;1.82;1.30;;;;;;;;;;1774627;80;25449;-66
2023/05/31 12:15:31;;;;;;;3.40;1.52;;;;;;;;;;1774678;80;25507;-67
2023/05/31 12:18:00;;;;;;;2.83;1.07;;;;;;;;;;1774595;80;25499;-66
2023/05/31 12:20:29;;;;;;;4.10;1.65;;;;;;;;;;1774774;80;25449;-66
2023/05/31 12:23:11;;;;;;;54.00;48.73;;;;;;;;;;1774830;80;27306;-65
2023/05/31 12:25:48;;;;;;;4.90;2.10;;;;;;;;;;1774762;80;25448;-67
2023/05/31 12:28:18;;;;;;;20.08;18.50;;;;;;;;;;1774767;80;25471;-66
2023/05/31 12:30:49;;;;;;;20.77;19.15;;;;;;;;;;1774828;80;26077;-65
2023/05/31 12:33:18;;;;;;;5.80;3.67;;;;;;;;;;1774741;80;25443;-67
2023/05/31 12:35:47;;;;;;;5.90;1.40;;;;;;;;;;1774717;80;27427;-67
2023/05/31 12:38:16;;;;;;;57.85;54.05;;;;;;;;;;1774719;80;25295;-66
2023/05/31 12:40:45;;;;;;;54.88;51.85;;;;;;;;;;1774771;80;25400;-67
2023/05/31 12:43:14;;;;;;;1.95;1.40;;;;;;;;;;1774774;80;25673;-68
2023/05/31 12:45:43;;;;;;;3.72;1.45;;;;;;;;;;1742520;80;25347;-68
2023/05/31 12:48:10;;;;;;;4.72;1.35;;;;;;;;;;1774712;80;29693;-67
2023/05/31 12:50:47;;;;;;;2.12;1.27;;;;;;;;;;1774578;80;27252;-67
2023/05/31 12:53:16;;;;;;;3.37;2.75;;;;;;;;;;1773836;80;25500;-68
2023/05/31 12:55:45;;;;;;;56.53;53.73;;;;;;;;;;1774713;80;25562;-67
2023/05/31 12:58:12;;;;;;;7.17;1.40;;;;;;;;;;1774744;80;25523;-68
2023/05/31 13:00:39;;;;;;;4.05;1.30;;;;;;;;;;1774729;80;27346;-68
2023/05/31 13:03:13;;;;;;;;;;;;;;;;;;1777297;80;25884;-67
2023/05/31 13:05:36;;;;;;;;;;;;;;;;;;1776173;80;25312;-67
2023/05/31 13:08:03;;;;;;;4.90;1.70;;;;;;;;;;1774764;80;25512;-67
2023/05/31 13:10:29;;;;;;;8.58;2.08;;;;;;;;;;1774802;80;25259;-69
2023/05/31 13:12:56;;;;;;;4.42;2.27;;;;;;;;;;1774994;80;28147;-67
2023/05/31 13:15:23;;;;;;;8.55;4.78;;;;;;;;;;1774776;80;25283;-65
2023/05/31 13:17:52;;;;;;;3.30;1.55;;;;;;;;;;1774705;80;25493;-64
2023/05/31 13:20:19;;;;;;;5.08;1.40;;;;;;;;;;1774683;80;25538;-64
2023/05/31 13:22:46;;;;;;;2.08;1.30;;;;;;;;;;1774754;80;25302;-64
2023/05/31 13:25:13;;;;;;;3.20;1.22;;;;;;;;;;1774762;80;27423;-65
2023/05/31 13:27:41;;;;;;;3.77;1.60;;;;;;;;;;1774617;80;25294;-64
2023/05/31 13:30:12;;;;;;;2.37;1.57;;;;;;;;;;1774801;80;25299;-63
2023/05/31 13:32:39;;;;;;;3.45;1.37;;;;;;;;;;1774759;80;26146;-64
2023/05/31 13:35:09;;;;;;;4.22;1.45;;;;;;;;;;1774762;80;25362;-65
2023/05/31 13:37:36;;;;;;;3.62;1.20;;;;;;;;;;1774767;80;28017;-65
2023/05/31 13:40:06;;;;;;;3.45;2.05;;;;;;;;;;1774673;80;25322;-65
2023/05/31 13:42:33;;;;;;;3.37;1.42;;;;;;;;;;1774758;80;25279;-65
2023/05/31 13:45:00;;;;;;;4.97;1.60;;;;;;;;;;1774660;80;25428;-68
2023/05/31 13:47:27;;;;;;;5.92;3.65;;;;;;;;;;1774788;80;25280;-70
2023/05/31 13:49:56;;;;;;;12.53;6.62;;;;;;;;;;1777186;80;28000;-64
2023/05/31 13:52:23;;;;;;;2.77;1.50;;;;;;;;;;1783110;80;25286;-62
2023/05/31 13:54:50;;;;;;;6.92;1.52;;;;;;;;;;1783323;80;25288;-61
2023/05/31 13:57:17;;;;;;;4.20;1.60;;;;;;;;;;1783157;80;25461;-63
2023/05/31 13:59:43;;;;;;;4.22;1.62;;;;;;;;;;1783230;80;25271;-63
2023/05/31 14:02:10;;;;;;;3.25;1.50;;;;;;;;;;1783192;80;27381;-62
2023/05/31 14:04:37;;;;;;;3.77;1.20;;;;;;;;;;1783107;80;25326;-62
2023/05/31 14:07:06;;;;;;;4.25;1.50;;;;;;;;;;1783187;80;25463;-62
2023/05/31 14:09:33;;;;;;;1.60;1.40;;;;;;;;;;1783302;80;26353;-62
2023/05/31 14:12:04;;;;;;;4.17;1.40;;;;;;;;;;1783384;80;25304;-62
2023/05/31 14:14:31;;;;;;;;;;;;;;;;;;1785885;80;27437;-62
2023/05/31 14:16:59;;;;;;;4.62;1.60;;;;;;;;;;1783212;80;25288;-63
2023/05/31 14:19:26;;;;;;;8.65;1.80;;;;;;;;;;1783252;80;25550;-63
2023/05/31 14:21:53;;;;;;;3.30;1.50;;;;;;;;;;1783176;80;26404;-61
2023/05/31 14:24:21;;;;;;;3.80;1.60;;;;;;;;;;1783255;80;25297;-65
2023/05/31 14:26:48;;;;;;;2.35;1.45;;;;;;;;;;1783236;80;27435;-65
2023/05/31 14:29:15;;;;;;;3.80;1.70;;;;;;;;;;1783211;80;25618;-65
2023/05/31 14:31:42;;;;;;;3.25;1.65;;;;;;;;;;1783274;80;25285;-65
2023/05/31 14:34:09;;;;;;;5.37;1.60;;;;;;;;;;1783321;80;26481;-64
2023/05/31 14:36:37;;;;;;;8.15;1.77;;;;;;;;;;1783259;80;25384;-66
2023/05/31 14:39:04;;;;;;;;;;;;;;;;;;1785902;80;27377;-65
2023/05/31 14:41:32;;;;;;;2.60;1.30;;;;;;;;;;1783189;80;25314;-64
2023/05/31 14:43:59;;;;;;;1.77;1.42;;;;;;;;;;1783212;80;25577;-66
2023/05/31 14:46:26;;;;;;;3.02;1.72;;;;;;;;;;1783203;80;25504;-65